sensor_id;sensor_type;location;lat;lon;timestamp;P1;durP1;ratioP1;P2;durP2;ratioP2
62903;SDS011;49000;50.698;13.322;2022-11-15T00:01:47;24.60;;;13.50;;
62903;SDS011;49000;50.698;13.322;2022-11-15T00:04:12;24.87;;;13.53;;
62903;SDS011;49000;50.698;13.322;2022-11-15T00:06:38;26.70;;;14.23;;
62903;SDS011;49000;50.698;13.322;2022-11-15T00:09:03;22.63;;;12.40;;
62903;SDS011;49000;50.698;13.322;2022-11-15T00:11:29;22.47;;;11.20;;
62903;SDS011;49000;50.698;13.322;2022-11-15T00:13:55;18.70;;;10.80;;
62903;SDS011;49000;50.698;13.322;2022-11-15T00:16:22;20.03;;;11.47;;
62903;SDS011;49000;50.698;13.322;2022-11-15T00:18:48;21.33;;;11.03;;
62903;SDS011;49000;50.698;13.322;2022-11-15T00:21:14;20.23;;;11.00;;
62903;SDS011;49000;50.698;13.322;2022-11-15T00:23:40;18.90;;;11.40;;
62903;SDS011;49000;50.698;13.322;2022-11-15T00:26:05;21.27;;;11.30;;
62903;SDS011;49000;50.698;13.322;2022-11-15T00:28:31;19.77;;;11.27;;
62903;SDS011;49000;50.698;13.322;2022-11-15T00:31:04;25.93;;;12.43;;
62903;SDS011;49000;50.698;13.322;2022-11-15T00:33:31;20.93;;;11.17;;
62903;SDS011;49000;50.698;13.322;2022-11-15T00:36:01;25.03;;;11.70;;
62903;SDS011;49000;50.698;13.322;2022-11-15T00:38:32;26.10;;;12.30;;
62903;SDS011;49000;50.698;13.322;2022-11-15T00:40:59;22.10;;;12.17;;
62903;SDS011;49000;50.698;13.322;2022-11-15T00:43:25;20.90;;;12.23;;
62903;SDS011;49000;50.698;13.322;2022-11-15T00:45:51;24.03;;;13.30;;
62903;SDS011;49000;50.698;13.322;2022-11-15T00:48:16;23.63;;;11.80;;
62903;SDS011;49000;50.698;13.322;2022-11-15T00:50:42;25.03;;;12.40;;
62903;SDS011;49000;50.698;13.322;2022-11-15T00:53:07;27.57;;;13.30;;
62903;SDS011;49000;50.698;13.322;2022-11-15T00:55:33;30.67;;;14.03;;
62903;SDS011;49000;50.698;13.322;2022-11-15T00:57:58;25.00;;;13.00;;
62903;SDS011;49000;50.698;13.322;2022-11-15T01:00:24;23.23;;;12.23;;
62903;SDS011;49000;50.698;13.322;2022-11-15T01:02:49;23.93;;;11.47;;
62903;SDS011;49000;50.698;13.322;2022-11-15T01:05:14;26.83;;;12.57;;
62903;SDS011;49000;50.698;13.322;2022-11-15T01:07:40;24.00;;;13.13;;
62903;SDS011;49000;50.698;13.322;2022-11-15T01:10:06;26.20;;;13.70;;
62903;SDS011;49000;50.698;13.322;2022-11-15T01:12:32;27.83;;;12.97;;
62903;SDS011;49000;50.698;13.322;2022-11-15T01:14:58;28.53;;;13.60;;
62903;SDS011;49000;50.698;13.322;2022-11-15T01:17:24;26.43;;;13.00;;
62903;SDS011;49000;50.698;13.322;2022-11-15T01:19:49;24.57;;;12.63;;
62903;SDS011;49000;50.698;13.322;2022-11-15T01:22:15;24.80;;;13.10;;
62903;SDS011;49000;50.698;13.322;2022-11-15T01:24:40;27.50;;;13.97;;
62903;SDS011;49000;50.698;13.322;2022-11-15T01:27:06;27.53;;;12.97;;
62903;SDS011;49000;50.698;13.322;2022-11-15T01:29:32;25.00;;;12.93;;
62903;SDS011;49000;50.698;13.322;2022-11-15T01:31:58;28.80;;;14.43;;
62903;SDS011;49000;50.698;13.322;2022-11-15T01:34:23;23.20;;;13.10;;
62903;SDS011;49000;50.698;13.322;2022-11-15T01:36:49;27.63;;;14.57;;
62903;SDS011;49000;50.698;13.322;2022-11-15T01:39:14;32.47;;;14.93;;
62903;SDS011;49000;50.698;13.322;2022-11-15T01:41:40;30.87;;;14.30;;
62903;SDS011;49000;50.698;13.322;2022-11-15T01:46:59;26.90;;;13.80;;
62903;SDS011;49000;50.698;13.322;2022-11-15T01:49:28;23.67;;;12.47;;
62903;SDS011;49000;50.698;13.322;2022-11-15T01:51:56;29.13;;;14.37;;
62903;SDS011;49000;50.698;13.322;2022-11-15T01:54:23;25.10;;;12.53;;
62903;SDS011;49000;50.698;13.322;2022-11-15T01:56:50;22.17;;;10.93;;
62903;SDS011;49000;50.698;13.322;2022-11-15T01:59:18;26.83;;;13.53;;
62903;SDS011;49000;50.698;13.322;2022-11-15T02:01:44;28.37;;;13.67;;
62903;SDS011;49000;50.698;13.322;2022-11-15T02:04:15;26.50;;;13.00;;
62903;SDS011;49000;50.698;13.322;2022-11-15T02:06:43;23.37;;;12.93;;
62903;SDS011;49000;50.698;13.322;2022-11-15T02:09:11;27.33;;;12.97;;
62903;SDS011;49000;50.698;13.322;2022-11-15T02:11:37;25.97;;;12.63;;
62903;SDS011;49000;50.698;13.322;2022-11-15T02:14:03;27.53;;;13.33;;
62903;SDS011;49000;50.698;13.322;2022-11-15T02:19:22;32.50;;;15.60;;
62903;SDS011;49000;50.698;13.322;2022-11-15T02:22:42;26.60;;;13.47;;
62903;SDS011;49000;50.698;13.322;2022-11-15T02:25:01;33.50;;;14.70;;
62903;SDS011;49000;50.698;13.322;2022-11-15T02:33:45;33.03;;;16.07;;
62903;SDS011;49000;50.698;13.322;2022-11-15T02:36:17;35.53;;;16.40;;
62903;SDS011;49000;50.698;13.322;2022-11-15T02:39:09;28.27;;;13.90;;
62903;SDS011;49000;50.698;13.322;2022-11-15T02:44:21;36.37;;;16.53;;
62903;SDS011;49000;50.698;13.322;2022-11-15T02:46:56;32.83;;;15.33;;
62903;SDS011;49000;50.698;13.322;2022-11-15T02:49:40;33.43;;;15.73;;
62903;SDS011;49000;50.698;13.322;2022-11-15T02:52:19;28.27;;;14.10;;
62903;SDS011;49000;50.698;13.322;2022-11-15T02:55:04;29.07;;;13.43;;
62903;SDS011;49000;50.698;13.322;2022-11-15T02:57:40;30.77;;;13.80;;
62903;SDS011;49000;50.698;13.322;2022-11-15T03:00:21;31.50;;;14.00;;
62903;SDS011;49000;50.698;13.322;2022-11-15T03:02:57;32.63;;;14.77;;
62903;SDS011;49000;50.698;13.322;2022-11-15T03:08:45;35.90;;;15.37;;
62903;SDS011;49000;50.698;13.322;2022-11-15T03:11:23;31.23;;;14.17;;
62903;SDS011;49000;50.698;13.322;2022-11-15T03:16:44;29.40;;;13.77;;
62903;SDS011;49000;50.698;13.322;2022-11-15T03:19:26;30.43;;;13.53;;
62903;SDS011;49000;50.698;13.322;2022-11-15T03:22:00;33.07;;;14.93;;
62903;SDS011;49000;50.698;13.322;2022-11-15T03:24:30;31.20;;;14.77;;
62903;SDS011;49000;50.698;13.322;2022-11-15T03:26:59;31.77;;;14.07;;
62903;SDS011;49000;50.698;13.322;2022-11-15T03:29:28;32.47;;;14.77;;
62903;SDS011;49000;50.698;13.322;2022-11-15T03:32:02;30.30;;;14.03;;
62903;SDS011;49000;50.698;13.322;2022-11-15T03:34:41;26.43;;;13.53;;
62903;SDS011;49000;50.698;13.322;2022-11-15T03:37:11;29.33;;;13.03;;
62903;SDS011;49000;50.698;13.322;2022-11-15T03:39:41;32.93;;;14.13;;
62903;SDS011;49000;50.698;13.322;2022-11-15T03:47:34;32.10;;;14.33;;
62903;SDS011;49000;50.698;13.322;2022-11-15T03:50:07;28.73;;;13.17;;
62903;SDS011;49000;50.698;13.322;2022-11-15T03:52:36;32.13;;;14.63;;
62903;SDS011;49000;50.698;13.322;2022-11-15T03:55:03;27.30;;;14.00;;
62903;SDS011;49000;50.698;13.322;2022-11-15T03:57:30;26.70;;;12.60;;
62903;SDS011;49000;50.698;13.322;2022-11-15T03:59:56;32.77;;;13.93;;
62903;SDS011;49000;50.698;13.322;2022-11-15T04:02:22;33.60;;;13.97;;
62903;SDS011;49000;50.698;13.322;2022-11-15T04:04:47;27.53;;;13.50;;
62903;SDS011;49000;50.698;13.322;2022-11-15T04:07:13;25.77;;;12.53;;
62903;SDS011;49000;50.698;13.322;2022-11-15T04:09:38;29.67;;;13.97;;
62903;SDS011;49000;50.698;13.322;2022-11-15T04:12:24;32.20;;;13.73;;
62903;SDS011;49000;50.698;13.322;2022-11-15T04:17:35;27.60;;;13.47;;
62903;SDS011;49000;50.698;13.322;2022-11-15T04:20:06;26.17;;;12.47;;
62903;SDS011;49000;50.698;13.322;2022-11-15T04:22:53;28.90;;;12.87;;
62903;SDS011;49000;50.698;13.322;2022-11-15T04:25:38;27.80;;;14.13;;
62903;SDS011;49000;50.698;13.322;2022-11-15T04:28:04;29.70;;;13.97;;
62903;SDS011;49000;50.698;13.322;2022-11-15T04:30:30;31.30;;;14.47;;
62903;SDS011;49000;50.698;13.322;2022-11-15T04:32:55;32.33;;;14.00;;
62903;SDS011;49000;50.698;13.322;2022-11-15T04:35:21;33.43;;;14.63;;
62903;SDS011;49000;50.698;13.322;2022-11-15T04:37:46;31.17;;;13.73;;
62903;SDS011;49000;50.698;13.322;2022-11-15T04:40:12;26.77;;;12.50;;
62903;SDS011;49000;50.698;13.322;2022-11-15T04:42:37;27.23;;;13.20;;
62903;SDS011;49000;50.698;13.322;2022-11-15T04:45:05;23.87;;;12.47;;
62903;SDS011;49000;50.698;13.322;2022-11-15T04:47:31;25.73;;;12.90;;
62903;SDS011;49000;50.698;13.322;2022-11-15T04:49:56;29.70;;;14.30;;
62903;SDS011;49000;50.698;13.322;2022-11-15T04:52:22;26.43;;;12.50;;
62903;SDS011;49000;50.698;13.322;2022-11-15T04:54:47;26.67;;;13.63;;
62903;SDS011;49000;50.698;13.322;2022-11-15T04:57:13;27.87;;;13.27;;
62903;SDS011;49000;50.698;13.322;2022-11-15T04:59:39;27.13;;;13.40;;
62903;SDS011;49000;50.698;13.322;2022-11-15T05:02:04;33.00;;;14.33;;
62903;SDS011;49000;50.698;13.322;2022-11-15T05:04:30;32.50;;;13.80;;
62903;SDS011;49000;50.698;13.322;2022-11-15T05:06:55;29.30;;;14.03;;
62903;SDS011;49000;50.698;13.322;2022-11-15T05:09:21;29.07;;;12.63;;
62903;SDS011;49000;50.698;13.322;2022-11-15T05:11:47;26.70;;;12.93;;
62903;SDS011;49000;50.698;13.322;2022-11-15T05:14:12;31.37;;;13.77;;
62903;SDS011;49000;50.698;13.322;2022-11-15T05:16:38;34.13;;;14.83;;
62903;SDS011;49000;50.698;13.322;2022-11-15T05:19:04;32.27;;;13.37;;
62903;SDS011;49000;50.698;13.322;2022-11-15T05:21:30;29.87;;;14.37;;
62903;SDS011;49000;50.698;13.322;2022-11-15T05:23:56;28.40;;;13.80;;
62903;SDS011;49000;50.698;13.322;2022-11-15T05:26:22;27.63;;;12.97;;
62903;SDS011;49000;50.698;13.322;2022-11-15T05:28:51;24.80;;;12.47;;
62903;SDS011;49000;50.698;13.322;2022-11-15T05:31:21;26.80;;;12.57;;
62903;SDS011;49000;50.698;13.322;2022-11-15T05:33:47;23.97;;;12.60;;
62903;SDS011;49000;50.698;13.322;2022-11-15T05:39:01;26.33;;;12.73;;
62903;SDS011;49000;50.698;13.322;2022-11-15T05:41:30;27.60;;;12.90;;
62903;SDS011;49000;50.698;13.322;2022-11-15T05:44:05;25.50;;;12.47;;
62903;SDS011;49000;50.698;13.322;2022-11-15T05:46:34;22.23;;;12.83;;
62903;SDS011;49000;50.698;13.322;2022-11-15T05:49:02;27.40;;;13.63;;
62903;SDS011;49000;50.698;13.322;2022-11-15T05:51:31;25.07;;;13.60;;
62903;SDS011;49000;50.698;13.322;2022-11-15T05:53:56;27.00;;;12.13;;
62903;SDS011;49000;50.698;13.322;2022-11-15T05:56:23;32.60;;;14.00;;
62903;SDS011;49000;50.698;13.322;2022-11-15T05:58:51;28.03;;;12.60;;
62903;SDS011;49000;50.698;13.322;2022-11-15T06:01:19;25.90;;;12.87;;
62903;SDS011;49000;50.698;13.322;2022-11-15T06:03:45;29.37;;;12.57;;
62903;SDS011;49000;50.698;13.322;2022-11-15T06:06:10;30.67;;;13.93;;
62903;SDS011;49000;50.698;13.322;2022-11-15T06:08:36;24.50;;;12.70;;
62903;SDS011;49000;50.698;13.322;2022-11-15T06:11:05;25.50;;;12.47;;
62903;SDS011;49000;50.698;13.322;2022-11-15T06:13:31;22.90;;;11.27;;
62903;SDS011;49000;50.698;13.322;2022-11-15T06:15:57;23.60;;;11.80;;
62903;SDS011;49000;50.698;13.322;2022-11-15T06:18:23;22.63;;;11.57;;
62903;SDS011;49000;50.698;13.322;2022-11-15T06:20:49;25.60;;;11.73;;
62903;SDS011;49000;50.698;13.322;2022-11-15T06:23:15;23.73;;;11.67;;
62903;SDS011;49000;50.698;13.322;2022-11-15T06:25:40;25.07;;;12.03;;
62903;SDS011;49000;50.698;13.322;2022-11-15T06:28:06;21.20;;;11.27;;
62903;SDS011;49000;50.698;13.322;2022-11-15T06:30:31;27.93;;;12.83;;
62903;SDS011;49000;50.698;13.322;2022-11-15T06:33:01;26.03;;;12.33;;
62903;SDS011;49000;50.698;13.322;2022-11-15T06:35:28;33.27;;;14.03;;
62903;SDS011;49000;50.698;13.322;2022-11-15T06:37:55;28.67;;;14.13;;
62903;SDS011;49000;50.698;13.322;2022-11-15T06:40:21;25.93;;;12.57;;
62903;SDS011;49000;50.698;13.322;2022-11-15T06:42:46;31.60;;;13.93;;
62903;SDS011;49000;50.698;13.322;2022-11-15T06:45:12;30.60;;;13.50;;
62903;SDS011;49000;50.698;13.322;2022-11-15T06:47:44;34.07;;;14.67;;
62903;SDS011;49000;50.698;13.322;2022-11-15T06:50:11;32.23;;;13.80;;
62903;SDS011;49000;50.698;13.322;2022-11-15T06:52:37;29.53;;;14.37;;
62903;SDS011;49000;50.698;13.322;2022-11-15T06:55:02;26.63;;;12.87;;
62903;SDS011;49000;50.698;13.322;2022-11-15T06:57:28;32.30;;;14.40;;
62903;SDS011;49000;50.698;13.322;2022-11-15T06:59:53;25.80;;;12.63;;
62903;SDS011;49000;50.698;13.322;2022-11-15T07:02:19;29.77;;;13.10;;
62903;SDS011;49000;50.698;13.322;2022-11-15T07:04:44;24.17;;;11.13;;
62903;SDS011;49000;50.698;13.322;2022-11-15T07:07:10;25.37;;;12.97;;
62903;SDS011;49000;50.698;13.322;2022-11-15T07:09:35;29.10;;;13.17;;
62903;SDS011;49000;50.698;13.322;2022-11-15T07:12:01;27.97;;;12.97;;
62903;SDS011;49000;50.698;13.322;2022-11-15T07:14:26;25.23;;;12.17;;
62903;SDS011;49000;50.698;13.322;2022-11-15T07:16:52;27.13;;;12.60;;
62903;SDS011;49000;50.698;13.322;2022-11-15T07:19:17;33.70;;;15.17;;
62903;SDS011;49000;50.698;13.322;2022-11-15T07:21:43;24.57;;;12.27;;
62903;SDS011;49000;50.698;13.322;2022-11-15T07:24:08;23.47;;;11.67;;
62903;SDS011;49000;50.698;13.322;2022-11-15T07:26:34;29.03;;;14.50;;
62903;SDS011;49000;50.698;13.322;2022-11-15T07:28:59;21.27;;;10.83;;
62903;SDS011;49000;50.698;13.322;2022-11-15T07:31:25;22.13;;;11.53;;
62903;SDS011;49000;50.698;13.322;2022-11-15T07:33:50;26.40;;;12.83;;
62903;SDS011;49000;50.698;13.322;2022-11-15T07:36:16;23.73;;;12.10;;
62903;SDS011;49000;50.698;13.322;2022-11-15T07:38:41;22.80;;;11.77;;
62903;SDS011;49000;50.698;13.322;2022-11-15T07:41:07;23.53;;;12.73;;
62903;SDS011;49000;50.698;13.322;2022-11-15T07:43:32;20.73;;;11.40;;
62903;SDS011;49000;50.698;13.322;2022-11-15T07:45:59;23.10;;;12.03;;
62903;SDS011;49000;50.698;13.322;2022-11-15T07:48:30;21.87;;;12.43;;
62903;SDS011;49000;50.698;13.322;2022-11-15T07:50:56;25.27;;;11.87;;
62903;SDS011;49000;50.698;13.322;2022-11-15T07:53:21;25.20;;;12.63;;
62903;SDS011;49000;50.698;13.322;2022-11-15T07:55:47;25.60;;;12.30;;
62903;SDS011;49000;50.698;13.322;2022-11-15T07:58:12;25.50;;;12.77;;
62903;SDS011;49000;50.698;13.322;2022-11-15T08:00:38;21.07;;;11.03;;
62903;SDS011;49000;50.698;13.322;2022-11-15T08:03:04;20.43;;;10.97;;
62903;SDS011;49000;50.698;13.322;2022-11-15T08:05:34;23.77;;;12.40;;
62903;SDS011;49000;50.698;13.322;2022-11-15T08:08:01;19.23;;;10.33;;
62903;SDS011;49000;50.698;13.322;2022-11-15T08:10:27;22.70;;;11.03;;
62903;SDS011;49000;50.698;13.322;2022-11-15T08:13:00;22.57;;;10.90;;
62903;SDS011;49000;50.698;13.322;2022-11-15T08:15:27;25.47;;;12.27;;
62903;SDS011;49000;50.698;13.322;2022-11-15T08:17:57;22.43;;;11.80;;
62903;SDS011;49000;50.698;13.322;2022-11-15T08:20:24;22.40;;;11.33;;
62903;SDS011;49000;50.698;13.322;2022-11-15T08:22:51;23.40;;;11.67;;
62903;SDS011;49000;50.698;13.322;2022-11-15T08:25:16;25.80;;;12.90;;
62903;SDS011;49000;50.698;13.322;2022-11-15T08:27:42;23.30;;;11.40;;
62903;SDS011;49000;50.698;13.322;2022-11-15T08:30:08;16.97;;;10.13;;
62903;SDS011;49000;50.698;13.322;2022-11-15T08:32:34;23.67;;;12.57;;
62903;SDS011;49000;50.698;13.322;2022-11-15T08:35:00;25.73;;;13.90;;
62903;SDS011;49000;50.698;13.322;2022-11-15T08:37:25;25.67;;;13.47;;
62903;SDS011;49000;50.698;13.322;2022-11-15T08:39:51;26.27;;;13.10;;
62903;SDS011;49000;50.698;13.322;2022-11-15T08:42:16;28.33;;;13.47;;
62903;SDS011;49000;50.698;13.322;2022-11-15T08:44:42;19.40;;;11.30;;
62903;SDS011;49000;50.698;13.322;2022-11-15T08:47:08;26.57;;;12.27;;
62903;SDS011;49000;50.698;13.322;2022-11-15T08:49:36;21.57;;;11.70;;
62903;SDS011;49000;50.698;13.322;2022-11-15T08:52:01;24.37;;;12.17;;
62903;SDS011;49000;50.698;13.322;2022-11-15T08:54:27;24.73;;;11.57;;
62903;SDS011;49000;50.698;13.322;2022-11-15T08:56:53;22.07;;;12.17;;
62903;SDS011;49000;50.698;13.322;2022-11-15T08:59:18;20.90;;;10.80;;
62903;SDS011;49000;50.698;13.322;2022-11-15T09:01:44;21.10;;;10.83;;
62903;SDS011;49000;50.698;13.322;2022-11-15T09:04:09;23.20;;;11.13;;
62903;SDS011;49000;50.698;13.322;2022-11-15T09:06:35;18.83;;;8.93;;
62903;SDS011;49000;50.698;13.322;2022-11-15T09:09:00;13.27;;;8.60;;
62903;SDS011;49000;50.698;13.322;2022-11-15T09:11:26;17.57;;;9.83;;
62903;SDS011;49000;50.698;13.322;2022-11-15T09:13:52;22.23;;;10.90;;
62903;SDS011;49000;50.698;13.322;2022-11-15T09:16:17;15.67;;;8.90;;
62903;SDS011;49000;50.698;13.322;2022-11-15T09:18:43;19.90;;;9.77;;
62903;SDS011;49000;50.698;13.322;2022-11-15T09:21:09;16.87;;;7.93;;
62903;SDS011;49000;50.698;13.322;2022-11-15T09:23:35;16.10;;;8.50;;
62903;SDS011;49000;50.698;13.322;2022-11-15T09:26:01;20.13;;;9.50;;
62903;SDS011;49000;50.698;13.322;2022-11-15T09:28:28;13.63;;;8.23;;
62903;SDS011;49000;50.698;13.322;2022-11-15T09:30:57;16.80;;;9.10;;
62903;SDS011;49000;50.698;13.322;2022-11-15T09:33:24;15.80;;;8.53;;
62903;SDS011;49000;50.698;13.322;2022-11-15T09:35:50;17.50;;;8.67;;
62903;SDS011;49000;50.698;13.322;2022-11-15T09:38:17;13.97;;;7.30;;
62903;SDS011;49000;50.698;13.322;2022-11-15T09:40:43;17.50;;;8.30;;
62903;SDS011;49000;50.698;13.322;2022-11-15T09:46:02;10.67;;;6.43;;
62903;SDS011;49000;50.698;13.322;2022-11-15T09:48:35;13.43;;;6.80;;
62903;SDS011;49000;50.698;13.322;2022-11-15T09:51:13;12.97;;;7.67;;
62903;SDS011;49000;50.698;13.322;2022-11-15T09:53:52;8.27;;;5.63;;
62903;SDS011;49000;50.698;13.322;2022-11-15T09:56:21;10.87;;;7.00;;
62903;SDS011;49000;50.698;13.322;2022-11-15T10:04:19;7.87;;;3.87;;
62903;SDS011;49000;50.698;13.322;2022-11-15T10:06:51;5.40;;;3.77;;
62903;SDS011;49000;50.698;13.322;2022-11-15T10:09:27;6.77;;;4.27;;
62903;SDS011;49000;50.698;13.322;2022-11-15T10:12:01;6.83;;;3.93;;
62903;SDS011;49000;50.698;13.322;2022-11-15T10:14:27;6.30;;;3.80;;
62903;SDS011;49000;50.698;13.322;2022-11-15T10:17:02;6.63;;;3.80;;
62903;SDS011;49000;50.698;13.322;2022-11-15T10:19:45;7.90;;;4.70;;
62903;SDS011;49000;50.698;13.322;2022-11-15T10:22:26;5.20;;;3.50;;
62903;SDS011;49000;50.698;13.322;2022-11-15T10:24:58;4.40;;;3.40;;
62903;SDS011;49000;50.698;13.322;2022-11-15T10:27:38;5.67;;;3.60;;
62903;SDS011;49000;50.698;13.322;2022-11-15T10:30:10;4.83;;;3.83;;
62903;SDS011;49000;50.698;13.322;2022-11-15T10:32:38;6.80;;;3.90;;
62903;SDS011;49000;50.698;13.322;2022-11-15T10:35:25;6.60;;;3.53;;
62903;SDS011;49000;50.698;13.322;2022-11-15T10:38:04;4.33;;;3.30;;
62903;SDS011;49000;50.698;13.322;2022-11-15T10:40:34;5.20;;;3.13;;
62903;SDS011;49000;50.698;13.322;2022-11-15T10:45:35;5.47;;;3.40;;
62903;SDS011;49000;50.698;13.322;2022-11-15T10:50:39;4.37;;;3.03;;
62903;SDS011;49000;50.698;13.322;2022-11-15T10:53:21;5.13;;;3.20;;
62903;SDS011;49000;50.698;13.322;2022-11-15T10:55:57;6.30;;;3.20;;
62903;SDS011;49000;50.698;13.322;2022-11-15T11:01:24;6.20;;;2.70;;
62903;SDS011;49000;50.698;13.322;2022-11-15T11:04:01;4.00;;;2.50;;
62903;SDS011;49000;50.698;13.322;2022-11-15T11:06:50;4.87;;;2.57;;
62903;SDS011;49000;50.698;13.322;2022-11-15T11:09:33;3.90;;;2.57;;
62903;SDS011;49000;50.698;13.322;2022-11-15T11:12:05;5.53;;;2.93;;
62903;SDS011;49000;50.698;13.322;2022-11-15T11:14:35;4.20;;;2.60;;
62903;SDS011;49000;50.698;13.322;2022-11-15T11:17:12;3.53;;;2.50;;
62903;SDS011;49000;50.698;13.322;2022-11-15T11:20:11;4.23;;;2.57;;
62903;SDS011;49000;50.698;13.322;2022-11-15T11:29:11;4.17;;;2.80;;
62903;SDS011;49000;50.698;13.322;2022-11-15T11:37:42;3.33;;;2.30;;
62903;SDS011;49000;50.698;13.322;2022-11-15T11:40:35;4.77;;;2.87;;
62903;SDS011;49000;50.698;13.322;2022-11-15T11:43:13;3.77;;;2.40;;
62903;SDS011;49000;50.698;13.322;2022-11-15T11:48:57;6.20;;;2.67;;
62903;SDS011;49000;50.698;13.322;2022-11-15T11:51:27;4.07;;;2.60;;
62903;SDS011;49000;50.698;13.322;2022-11-15T11:53:59;3.53;;;2.30;;
62903;SDS011;49000;50.698;13.322;2022-11-15T11:56:34;3.43;;;2.30;;
62903;SDS011;49000;50.698;13.322;2022-11-15T11:59:06;4.87;;;2.40;;
62903;SDS011;49000;50.698;13.322;2022-11-15T12:01:44;5.17;;;2.60;;
62903;SDS011;49000;50.698;13.322;2022-11-15T12:10:04;4.03;;;1.87;;
62903;SDS011;49000;50.698;13.322;2022-11-15T12:13:04;3.83;;;2.10;;
62903;SDS011;49000;50.698;13.322;2022-11-15T12:15:33;3.17;;;2.03;;
62903;SDS011;49000;50.698;13.322;2022-11-15T12:18:04;4.53;;;2.33;;
62903;SDS011;49000;50.698;13.322;2022-11-15T12:20:32;3.97;;;2.63;;
62903;SDS011;49000;50.698;13.322;2022-11-15T12:26:05;5.57;;;2.50;;
62903;SDS011;49000;50.698;13.322;2022-11-15T12:31:43;3.60;;;2.53;;
62903;SDS011;49000;50.698;13.322;2022-11-15T12:36:44;5.50;;;3.77;;
62903;SDS011;49000;50.698;13.322;2022-11-15T12:39:11;8.23;;;4.97;;
62903;SDS011;49000;50.698;13.322;2022-11-15T12:41:38;7.77;;;4.80;;
62903;SDS011;49000;50.698;13.322;2022-11-15T12:44:10;7.03;;;4.70;;
62903;SDS011;49000;50.698;13.322;2022-11-15T12:59:50;8.17;;;4.97;;
62903;SDS011;49000;50.698;13.322;2022-11-15T13:02:27;7.00;;;4.70;;
62903;SDS011;49000;50.698;13.322;2022-11-15T13:17:51;6.23;;;4.40;;
62903;SDS011;49000;50.698;13.322;2022-11-15T13:20:20;8.60;;;5.47;;
62903;SDS011;49000;50.698;13.322;2022-11-15T13:28:30;8.87;;;4.93;;
62903;SDS011;49000;50.698;13.322;2022-11-15T13:36:52;7.97;;;5.07;;
62903;SDS011;49000;50.698;13.322;2022-11-15T13:39:31;8.10;;;5.37;;
62903;SDS011;49000;50.698;13.322;2022-11-15T13:41:59;6.73;;;4.77;;
62903;SDS011;49000;50.698;13.322;2022-11-15T13:44:30;7.40;;;5.13;;
62903;SDS011;49000;50.698;13.322;2022-11-15T13:47:04;9.63;;;5.17;;
62903;SDS011;49000;50.698;13.322;2022-11-15T13:49:31;8.70;;;6.17;;
62903;SDS011;49000;50.698;13.322;2022-11-15T13:51:57;8.33;;;5.97;;
62903;SDS011;49000;50.698;13.322;2022-11-15T13:54:35;10.33;;;6.80;;
62903;SDS011;49000;50.698;13.322;2022-11-15T13:57:20;9.57;;;6.50;;
62903;SDS011;49000;50.698;13.322;2022-11-15T13:59:51;8.37;;;6.43;;
62903;SDS011;49000;50.698;13.322;2022-11-15T14:02:21;10.13;;;6.17;;
62903;SDS011;49000;50.698;13.322;2022-11-15T14:04:55;12.17;;;6.53;;
62903;SDS011;49000;50.698;13.322;2022-11-15T14:07:25;8.83;;;6.57;;
62903;SDS011;49000;50.698;13.322;2022-11-15T14:09:53;10.10;;;6.70;;
62903;SDS011;49000;50.698;13.322;2022-11-15T14:12:23;8.90;;;6.17;;
62903;SDS011;49000;50.698;13.322;2022-11-15T14:14:57;10.00;;;6.57;;
62903;SDS011;49000;50.698;13.322;2022-11-15T14:17:43;9.93;;;6.47;;
62903;SDS011;49000;50.698;13.322;2022-11-15T14:22:54;12.83;;;6.73;;
62903;SDS011;49000;50.698;13.322;2022-11-15T14:25:22;9.67;;;6.47;;
62903;SDS011;49000;50.698;13.322;2022-11-15T14:30:49;8.43;;;6.37;;
62903;SDS011;49000;50.698;13.322;2022-11-15T14:33:19;8.60;;;6.23;;
62903;SDS011;49000;50.698;13.322;2022-11-15T14:35:45;10.80;;;6.67;;
62903;SDS011;49000;50.698;13.322;2022-11-15T14:38:10;10.17;;;6.37;;
62903;SDS011;49000;50.698;13.322;2022-11-15T14:40:36;9.87;;;6.10;;
62903;SDS011;49000;50.698;13.322;2022-11-15T14:43:01;9.20;;;6.03;;
62903;SDS011;49000;50.698;13.322;2022-11-15T14:45:27;8.40;;;6.10;;
62903;SDS011;49000;50.698;13.322;2022-11-15T14:47:53;9.50;;;5.77;;
62903;SDS011;49000;50.698;13.322;2022-11-15T14:50:19;9.10;;;5.90;;
62903;SDS011;49000;50.698;13.322;2022-11-15T14:52:46;10.80;;;6.17;;
62903;SDS011;49000;50.698;13.322;2022-11-15T14:55:29;6.87;;;5.10;;
62903;SDS011;49000;50.698;13.322;2022-11-15T14:57:57;10.67;;;6.30;;
62903;SDS011;49000;50.698;13.322;2022-11-15T15:00:24;10.77;;;6.70;;
62903;SDS011;49000;50.698;13.322;2022-11-15T15:02:50;9.57;;;5.73;;
62903;SDS011;49000;50.698;13.322;2022-11-15T15:05:35;9.07;;;6.33;;
62903;SDS011;49000;50.698;13.322;2022-11-15T15:08:02;12.00;;;6.67;;
62903;SDS011;49000;50.698;13.322;2022-11-15T15:10:31;9.13;;;6.00;;
62903;SDS011;49000;50.698;13.322;2022-11-15T15:13:01;10.80;;;6.43;;
62903;SDS011;49000;50.698;13.322;2022-11-15T15:15:32;12.50;;;7.17;;
62903;SDS011;49000;50.698;13.322;2022-11-15T15:17:59;12.23;;;7.07;;
62903;SDS011;49000;50.698;13.322;2022-11-15T15:20:25;13.67;;;7.40;;
62903;SDS011;49000;50.698;13.322;2022-11-15T15:22:50;14.13;;;9.27;;
62903;SDS011;49000;50.698;13.322;2022-11-15T15:25:37;15.57;;;8.93;;
62903;SDS011;49000;50.698;13.322;2022-11-15T15:28:02;14.00;;;8.73;;
62903;SDS011;49000;50.698;13.322;2022-11-15T15:30:28;14.87;;;8.73;;
62903;SDS011;49000;50.698;13.322;2022-11-15T15:32:55;17.10;;;8.57;;
62903;SDS011;49000;50.698;13.322;2022-11-15T15:35:21;14.33;;;8.23;;
62903;SDS011;49000;50.698;13.322;2022-11-15T15:37:47;15.97;;;8.67;;
62903;SDS011;49000;50.698;13.322;2022-11-15T15:40:17;13.90;;;7.70;;
62903;SDS011;49000;50.698;13.322;2022-11-15T15:42:45;10.97;;;7.60;;
62903;SDS011;49000;50.698;13.322;2022-11-15T15:45:11;14.00;;;7.83;;
62903;SDS011;49000;50.698;13.322;2022-11-15T15:47:38;13.03;;;7.73;;
62903;SDS011;49000;50.698;13.322;2022-11-15T15:52:45;32.60;;;17.48;;
62903;SDS011;49000;50.698;13.322;2022-11-15T15:55:11;22.03;;;13.47;;
62903;SDS011;49000;50.698;13.322;2022-11-15T15:57:36;22.43;;;11.33;;
62903;SDS011;49000;50.698;13.322;2022-11-15T16:00:03;19.53;;;11.33;;
62903;SDS011;49000;50.698;13.322;2022-11-15T16:02:29;17.10;;;10.23;;
62903;SDS011;49000;50.698;13.322;2022-11-15T16:04:54;17.70;;;10.07;;
62903;SDS011;49000;50.698;13.322;2022-11-15T16:07:21;16.97;;;9.87;;
62903;SDS011;49000;50.698;13.322;2022-11-15T16:09:50;17.37;;;10.07;;
62903;SDS011;49000;50.698;13.322;2022-11-15T16:12:25;15.37;;;8.93;;
62903;SDS011;49000;50.698;13.322;2022-11-15T16:15:00;15.63;;;9.40;;
62903;SDS011;49000;50.698;13.322;2022-11-15T16:17:30;15.93;;;9.20;;
62903;SDS011;49000;50.698;13.322;2022-11-15T16:20:04;13.43;;;8.57;;
62903;SDS011;49000;50.698;13.322;2022-11-15T16:22:30;14.07;;;8.77;;
62903;SDS011;49000;50.698;13.322;2022-11-15T16:24:55;13.20;;;8.40;;
62903;SDS011;49000;50.698;13.322;2022-11-15T16:27:21;15.13;;;8.67;;
62903;SDS011;49000;50.698;13.322;2022-11-15T16:29:47;14.60;;;8.10;;
62903;SDS011;49000;50.698;13.322;2022-11-15T16:32:14;13.33;;;8.13;;